Time;durP1;ratioP1;P1;durP2;ratioP2;P2;SDS_P1;SDS_P2;PMS_P1;PMS_P2;Temp;Humidity;BMP_temperature;BMP_pressure;BME280_temperature;BME280_humidity;BME280_pressure;Samples;Min_cycle;Max_cycle;Signal;HPM_P1;HPM_P2
2023/04/14 00:01:29;;;;;;;11.10;4.13;;;8.80;99.90;;;;;;5045162;28;20216;-65
2023/04/14 00:03:55;;;;;;;10.97;3.50;;;8.90;99.90;;;;;;5043577;28;20180;-65
2023/04/14 00:06:20;;;;;;;7.20;3.63;;;8.90;99.90;;;;;;5040615;28;20270;-65
2023/04/14 00:08:46;;;;;;;5.90;3.53;;;8.80;99.90;;;;;;5041919;28;20283;-65
2023/04/14 00:11:11;;;;;;;6.87;3.80;;;8.80;99.90;;;;;;5039493;28;20325;-65
2023/04/14 00:13:37;;;;;;;8.93;4.33;;;8.90;99.90;;;;;;5039108;28;20191;-66
2023/04/14 00:16:05;;;;;;;8.00;4.13;;;8.80;99.90;;;;;;5040963;28;20187;-65
2023/04/14 00:18:31;;;;;;;11.57;4.23;;;8.70;99.90;;;;;;5044586;28;20186;-65
2023/04/14 00:20:56;;;;;;;11.40;4.03;;;8.70;99.90;;;;;;5042071;28;20480;-65
2023/04/14 00:23:22;;;;;;;8.57;3.87;;;8.70;99.90;;;;;;5035899;28;20333;-65
2023/04/14 00:25:51;;;;;;;9.23;4.00;;;8.60;99.90;;;;;;5039581;28;20197;-65
2023/04/14 00:28:16;;;;;;;13.17;3.50;;;8.70;99.90;;;;;;5035808;28;20277;-65
2023/04/14 00:30:42;;;;;;;10.43;4.10;;;8.80;99.90;;;;;;5042420;28;20517;-65
2023/04/14 00:33:07;;;;;;;10.37;3.53;;;8.70;99.90;;;;;;5033727;28;20246;-65
2023/04/14 00:35:33;;;;;;;17.30;5.07;;;8.60;99.90;;;;;;5043891;28;20187;-65
2023/04/14 00:37:59;;;;;;;18.20;5.47;;;8.60;99.90;;;;;;5031867;28;20201;-65
2023/04/14 00:40:24;;;;;;;7.23;3.77;;;8.70;99.90;;;;;;5039109;28;20290;-65
2023/04/14 00:42:50;;;;;;;6.50;3.70;;;8.70;99.90;;;;;;5037740;28;20244;-65
2023/04/14 00:45:16;;;;;;;7.90;3.93;;;8.70;99.90;;;;;;5042600;28;20172;-66
2023/04/14 00:47:49;;;;;;;7.47;3.80;;;8.60;99.90;;;;;;5039974;28;20629;-65
2023/04/14 00:50:17;;;;;;;8.10;3.80;;;8.60;99.90;;;;;;5042149;28;20958;-64
2023/04/14 00:52:44;;;;;;;13.73;3.80;;;8.70;99.90;;;;;;5039566;28;21062;-65
2023/04/14 00:55:10;;;;;;;9.00;3.77;;;8.80;99.90;;;;;;5040769;28;20442;-65
2023/04/14 00:57:37;;;;;;;6.00;3.43;;;8.80;99.90;;;;;;5044711;28;20784;-65
2023/04/14 01:00:04;;;;;;;6.53;3.70;;;8.70;99.90;;;;;;5044136;28;20207;-65
2023/04/14 01:02:30;;;;;;;5.37;3.67;;;8.80;99.90;;;;;;5035552;28;20968;-65
2023/04/14 01:04:56;;;;;;;6.73;3.30;;;8.80;99.90;;;;;;5040892;28;20435;-66
2023/04/14 01:07:23;;;;;;;6.23;3.20;;;8.80;99.90;;;;;;5040301;28;21275;-65
2023/04/14 01:09:50;;;;;;;9.83;3.77;;;8.80;99.90;;;;;;5043832;28;20184;-66
2023/04/14 01:12:25;;;;;;;12.40;4.17;;;8.70;99.90;;;;;;5039898;28;20411;-66
2023/04/14 01:15:03;;;;;;;6.10;3.33;;;8.70;99.90;;;;;;5043091;28;20422;-66
2023/04/14 01:17:39;;;;;;;7.30;4.10;;;8.70;99.90;;;;;;5041814;28;20862;-65
2023/04/14 01:20:23;;;;;;;9.83;3.87;;;8.70;99.90;;;;;;5037939;28;20470;-66
2023/04/14 01:23:03;;;;;;;15.63;3.97;;;8.80;99.90;;;;;;5039422;28;20489;-65
2023/04/14 01:26:01;;;;;;;9.00;4.30;;;8.80;99.90;;;;;;5039633;28;20831;-66
2023/04/14 01:29:03;;;;;;;6.83;3.20;;;8.80;99.90;;;;;;5037463;28;20422;-65
2023/04/14 01:31:39;;;;;;;4.10;3.07;;;8.70;99.90;;;;;;5039249;28;20813;-65
2023/04/14 01:34:22;;;;;;;6.60;4.10;;;8.60;99.90;;;;;;5038811;28;20456;-66
2023/04/14 01:36:57;;;;;;;6.17;4.13;;;8.60;99.90;;;;;;5032850;28;20434;-66
2023/04/14 01:39:28;;;;;;;6.03;3.40;;;8.40;99.90;;;;;;5037787;28;20930;-66
2023/04/14 01:41:57;;;;;;;7.23;3.23;;;8.40;99.90;;;;;;5040033;28;21296;-65
2023/04/14 01:44:25;;;;;;;10.30;3.97;;;8.30;99.90;;;;;;5038339;28;20781;-66
2023/04/14 01:46:59;;;;;;;7.60;3.80;;;8.40;99.90;;;;;;5042554;28;20781;-66
2023/04/14 01:49:26;;;;;;;7.57;3.97;;;8.30;99.90;;;;;;5036643;28;20426;-69
2023/04/14 01:51:54;;;;;;;5.87;3.33;;;8.10;99.90;;;;;;5044237;28;20557;-65
2023/04/14 01:54:21;;;;;;;5.40;3.30;;;8.10;99.90;;;;;;5040998;28;20753;-65
2023/04/14 01:56:49;;;;;;;6.50;3.50;;;8.10;99.90;;;;;;5043317;28;20423;-66
2023/04/14 01:59:16;;;;;;;4.87;2.77;;;8.20;99.90;;;;;;5035542;28;20435;-66
2023/04/14 02:01:45;;;;;;;5.90;3.50;;;8.20;99.90;;;;;;5036307;28;20507;-66
2023/04/14 02:04:11;;;;;;;6.70;4.80;;;8.20;99.90;;;;;;5032606;28;20423;-66
2023/04/14 02:06:38;;;;;;;9.30;4.33;;;8.10;99.90;;;;;;5043223;28;21012;-66
2023/04/14 02:09:09;;;;;;;8.23;3.70;;;8.20;99.90;;;;;;5038323;28;20438;-65
2023/04/14 02:11:36;;;;;;;7.00;3.57;;;8.10;99.90;;;;;;5039443;28;20462;-65
2023/04/14 02:14:03;;;;;;;5.40;3.33;;;8.10;99.90;;;;;;5043265;28;20441;-67
2023/04/14 02:16:29;;;;;;;8.83;3.70;;;8.00;99.90;;;;;;5041223;28;20517;-65
2023/04/14 02:18:57;;;;;;;8.10;4.30;;;8.00;99.90;;;;;;5043221;28;20517;-65
2023/04/14 02:21:24;;;;;;;7.97;3.50;;;7.90;99.90;;;;;;5037228;28;20480;-65
2023/04/14 02:23:50;;;;;;;4.97;3.10;;;7.90;99.90;;;;;;5041885;28;20544;-65
2023/04/14 02:26:20;;;;;;;12.27;3.87;;;8.00;99.90;;;;;;5038696;28;20431;-66
2023/04/14 02:28:56;;;;;;;7.13;3.10;;;7.90;99.90;;;;;;5038051;28;20594;-65
2023/04/14 02:31:25;;;;;;;7.67;3.50;;;7.90;99.90;;;;;;5037438;28;20890;-66
2023/04/14 02:33:54;;;;;;;8.83;3.87;;;7.80;99.90;;;;;;5046538;28;20426;-66
2023/04/14 02:36:42;;;;;;;5.47;3.17;;;7.70;99.90;;;;;;5040653;28;20441;-66
2023/04/14 02:39:23;;;;;;;5.83;3.27;;;7.70;99.90;;;;;;5036580;28;21207;-66
2023/04/14 02:42:01;;;;;;;8.00;3.67;;;7.50;99.90;;;;;;5039654;28;20975;-66
2023/04/14 02:44:31;;;;;;;5.30;3.23;;;7.40;99.90;;;;;;5036855;28;21167;-66
2023/04/14 02:47:10;;;;;;;9.83;3.90;;;7.40;99.90;;;;;;5051389;28;20448;-66
2023/04/14 02:49:39;;;;;;;6.80;3.80;;;7.40;99.90;;;;;;5040881;28;20456;-66
2023/04/14 02:52:09;;;;;;;8.73;3.70;;;7.50;99.90;;;;;;5040988;28;20467;-66
2023/04/14 02:54:37;;;;;;;6.90;3.17;;;7.50;99.90;;;;;;5039593;28;20422;-66
2023/04/14 02:57:04;;;;;;;9.10;4.40;;;7.40;99.90;;;;;;5039029;28;20440;-66
2023/04/14 02:59:31;;;;;;;10.03;3.73;;;7.40;99.90;;;;;;5043477;28;21024;-66
2023/04/14 03:02:00;;;;;;;6.70;3.50;;;7.50;99.90;;;;;;5038069;28;20466;-66
2023/04/14 03:04:29;;;;;;;7.20;3.70;;;7.60;99.90;;;;;;5038441;28;20499;-65
2023/04/14 03:06:55;;;;;;;12.47;3.87;;;7.60;99.90;;;;;;5040377;28;20450;-66
2023/04/14 03:09:22;;;;;;;7.03;4.10;;;7.70;99.90;;;;;;5048758;28;20411;-66
2023/04/14 03:11:49;;;;;;;4.63;3.30;;;7.60;99.90;;;;;;5043741;28;20603;-66
2023/04/14 03:14:16;;;;;;;7.47;3.40;;;7.60;99.90;;;;;;5042956;28;20437;-66
2023/04/14 03:16:42;;;;;;;7.67;3.30;;;7.50;99.90;;;;;;5044189;28;20434;-65
2023/04/14 03:19:11;;;;;;;8.20;3.70;;;7.50;99.90;;;;;;5043107;28;20923;-66
2023/04/14 03:21:37;;;;;;;8.00;3.53;;;7.60;99.90;;;;;;5041809;28;20512;-66
2023/04/14 03:24:04;;;;;;;5.83;4.00;;;7.60;99.90;;;;;;5041251;28;20433;-65
2023/04/14 03:26:32;;;;;;;8.20;3.50;;;7.70;99.90;;;;;;5051635;28;20426;-65
2023/04/14 03:28:59;;;;;;;9.53;4.13;;;7.70;99.90;;;;;;5043926;28;20422;-65
2023/04/14 03:31:32;;;;;;;7.13;3.13;;;7.50;99.90;;;;;;5042730;28;20725;-65
2023/04/14 03:34:00;;;;;;;8.00;3.17;;;7.60;99.90;;;;;;5043889;28;20437;-65
2023/04/14 03:36:29;;;;;;;10.40;3.70;;;7.60;99.90;;;;;;5043586;28;20816;-65
2023/04/14 03:38:58;;;;;;;9.60;3.53;;;7.70;99.90;;;;;;5046631;28;20448;-65
2023/04/14 03:41:25;;;;;;;6.30;3.43;;;7.60;99.90;;;;;;5040063;28;20503;-66
2023/04/14 03:43:53;;;;;;;8.50;3.03;;;7.70;99.90;;;;;;5043237;28;20442;-66
2023/04/14 03:46:20;;;;;;;8.00;3.80;;;7.70;99.90;;;;;;5042478;28;20434;-66
2023/04/14 03:48:49;;;;;;;8.43;3.10;;;7.60;99.90;;;;;;5043120;28;20751;-66
2023/04/14 03:51:15;;;;;;;8.03;3.77;;;7.50;99.90;;;;;;5034790;28;20576;-66
2023/04/14 03:53:44;;;;;;;9.47;3.80;;;7.40;99.90;;;;;;5041246;28;20437;-66
2023/04/14 03:56:13;;;;;;;5.17;3.10;;;7.60;99.90;;;;;;5044390;28;20802;-65
2023/04/14 03:58:41;;;;;;;8.53;3.37;;;7.60;99.90;;;;;;5039785;28;20606;-69
2023/04/14 04:01:07;;;;;;;5.90;3.10;;;7.60;99.90;;;;;;5044038;28;20544;-66
2023/04/14 04:03:35;;;;;;;7.73;3.37;;;7.70;99.90;;;;;;5042237;28;20434;-65
2023/04/14 04:06:03;;;;;;;12.00;3.33;;;7.70;99.90;;;;;;5042178;28;20508;-66
2023/04/14 04:08:31;;;;;;;7.73;3.30;;;7.70;99.90;;;;;;5042821;28;20453;-66
2023/04/14 04:10:56;;;;;;;9.70;3.80;;;7.50;99.90;;;;;;5045299;28;20856;-65
2023/04/14 04:13:24;;;;;;;7.87;3.60;;;7.30;99.90;;;;;;5042450;28;20449;-65
2023/04/14 04:15:54;;;;;;;11.57;3.50;;;7.30;99.90;;;;;;5043571;28;20191;-66
2023/04/14 04:18:21;;;;;;;6.00;3.83;;;7.30;99.90;;;;;;5039276;28;20812;-65
2023/04/14 04:20:49;;;;;;;10.23;4.00;;;7.20;99.90;;;;;;5038420;28;20478;-65
2023/04/14 04:23:17;;;;;;;9.73;3.80;;;7.30;99.90;;;;;;5039388;28;20446;-65
2023/04/14 04:25:43;;;;;;;5.97;3.00;;;7.30;99.90;;;;;;5045420;28;20782;-65
2023/04/14 04:28:09;;;;;;;15.13;4.60;;;7.40;99.90;;;;;;5044386;28;20413;-65
2023/04/14 04:30:38;;;;;;;6.13;3.60;;;7.40;99.90;;;;;;5042298;28;20461;-65
2023/04/14 04:33:05;;;;;;;7.73;3.33;;;7.40;99.90;;;;;;5045050;28;20204;-65
2023/04/14 04:35:31;;;;;;;7.17;3.43;;;7.40;99.90;;;;;;5038626;28;20499;-68
2023/04/14 04:37:59;;;;;;;8.57;3.27;;;7.50;99.90;;;;;;5042917;28;20446;-65
2023/04/14 04:40:25;;;;;;;7.33;3.87;;;7.50;99.90;;;;;;5045595;28;20517;-68
2023/04/14 04:42:51;;;;;;;6.07;2.77;;;7.40;99.90;;;;;;5043631;28;20435;-66
2023/04/14 04:45:39;;;;;;;5.97;3.30;;;7.40;99.90;;;;;;5045118;28;20262;-65
2023/04/14 04:48:05;;;;;;;8.67;3.87;;;7.40;99.90;;;;;;5039688;28;20177;-66
2023/04/14 04:50:30;;;;;;;9.73;3.50;;;7.40;99.90;;;;;;5041334;28;20466;-66
2023/04/14 04:52:56;;;;;;;6.37;3.60;;;7.50;99.90;;;;;;5043819;28;20446;-66
2023/04/14 04:55:21;;;;;;;4.73;3.03;;;7.40;99.90;;;;;;5043193;28;20497;-66
2023/04/14 04:57:47;;;;;;;9.17;3.47;;;7.40;99.90;;;;;;5040693;28;20627;-66
2023/04/14 05:00:13;;;;;;;10.70;3.40;;;7.40;99.90;;;;;;5042246;28;21023;-66
2023/04/14 05:02:38;;;;;;;5.37;2.80;;;7.50;99.90;;;;;;5034878;28;20180;-68
2023/04/14 05:05:04;;;;;;;6.20;3.40;;;7.40;99.90;;;;;;5036869;28;20264;-66
2023/04/14 05:07:29;;;;;;;7.20;3.23;;;7.30;99.90;;;;;;5038828;28;20192;-66
2023/04/14 05:09:55;;;;;;;9.27;3.97;;;7.30;99.90;;;;;;5041723;28;20238;-66
2023/04/14 05:12:21;;;;;;;7.73;2.80;;;7.30;99.90;;;;;;5040855;28;20872;-66
2023/04/14 05:14:46;;;;;;;5.23;2.87;;;7.30;99.90;;;;;;5043702;28;20258;-66
2023/04/14 05:17:13;;;;;;;8.90;3.47;;;7.30;99.90;;;;;;5042391;28;20537;-66
2023/04/14 05:19:38;;;;;;;7.00;3.60;;;7.40;99.90;;;;;;5041333;28;20200;-65
2023/04/14 05:22:04;;;;;;;7.77;2.90;;;7.30;99.90;;;;;;5040607;28;20531;-65
2023/04/14 05:24:29;;;;;;;9.23;3.33;;;7.30;99.90;;;;;;5035208;28;20190;-65
2023/04/14 05:26:55;;;;;;;7.50;3.17;;;7.30;99.90;;;;;;5043942;28;20230;-64
2023/04/14 05:29:20;;;;;;;7.60;3.23;;;7.20;99.90;;;;;;5036607;28;20186;-64
2023/04/14 05:31:46;;;;;;;7.50;3.23;;;7.20;99.90;;;;;;5043784;28;20277;-64
2023/04/14 05:34:13;;;;;;;6.73;3.30;;;7.20;99.90;;;;;;5036708;28;20183;-64
2023/04/14 05:36:39;;;;;;;5.87;3.23;;;7.20;99.90;;;;;;5041539;28;20233;-64
2023/04/14 05:39:05;;;;;;;6.30;2.60;;;7.30;99.90;;;;;;5043132;28;20446;-65
2023/04/14 05:41:30;;;;;;;7.53;2.83;;;7.30;99.90;;;;;;5038247;28;20222;-65
2023/04/14 05:43:56;;;;;;;4.43;2.70;;;7.30;99.90;;;;;;5040368;28;20180;-65
2023/04/14 05:46:21;;;;;;;6.67;2.93;;;7.30;99.90;;;;;;5046429;28;20530;-65
2023/04/14 05:48:47;;;;;;;10.23;4.80;;;7.20;99.90;;;;;;5041333;28;20263;-65
2023/04/14 05:51:13;;;;;;;6.93;3.30;;;7.20;99.90;;;;;;5049280;28;20211;-65
2023/04/14 05:53:39;;;;;;;6.10;2.90;;;7.30;99.90;;;;;;5040206;28;20402;-65
2023/04/14 05:56:04;;;;;;;5.63;2.73;;;7.40;99.90;;;;;;5040823;28;20582;-65
2023/04/14 05:58:30;;;;;;;8.77;3.43;;;7.40;99.90;;;;;;5044910;28;20656;-65
2023/04/14 06:00:56;;;;;;;12.60;3.60;;;7.40;99.90;;;;;;5041671;28;20210;-65
2023/04/14 06:03:21;;;;;;;5.80;3.93;;;7.50;99.90;;;;;;5040551;28;21233;-65
2023/04/14 06:05:47;;;;;;;6.10;3.30;;;7.50;99.90;;;;;;5039601;28;20179;-65
2023/04/14 06:08:12;;;;;;;11.10;3.60;;;7.40;99.90;;;;;;5034702;28;20650;-65
2023/04/14 06:10:38;;;;;;;5.90;3.03;;;7.40;99.90;;;;;;5033877;28;20425;-65
2023/04/14 06:13:04;;;;;;;5.10;3.30;;;7.50;99.90;;;;;;5039443;28;20192;-65
2023/04/14 06:15:30;;;;;;;11.97;3.53;;;7.60;99.90;;;;;;5036657;28;20650;-65
2023/04/14 06:17:55;;;;;;;5.30;3.77;;;7.70;99.90;;;;;;5039800;28;20183;-65
2023/04/14 06:20:21;;;;;;;9.20;3.90;;;7.70;99.90;;;;;;5032154;28;20481;-65
2023/04/14 06:22:47;;;;;;;6.97;3.70;;;7.60;99.90;;;;;;5032507;28;20212;-65
2023/04/14 06:25:12;;;;;;;8.60;4.07;;;7.70;99.90;;;;;;5032726;28;20184;-65
2023/04/14 06:27:38;;;;;;;8.50;3.70;;;7.80;99.90;;;;;;5039184;28;20185;-65
2023/04/14 06:30:05;;;;;;;12.90;3.57;;;7.80;99.90;;;;;;5034829;28;20269;-67
2023/04/14 06:32:31;;;;;;;8.73;3.97;;;7.90;99.90;;;;;;5036998;28;20175;-65
2023/04/14 06:34:56;;;;;;;7.93;3.60;;;7.80;99.90;;;;;;5033540;28;20438;-65
2023/04/14 06:37:22;;;;;;;9.23;4.30;;;7.80;99.90;;;;;;5032399;28;20194;-65
2023/04/14 06:39:47;;;;;;;8.90;3.90;;;7.90;99.90;;;;;;5040457;28;20208;-65
2023/04/14 06:42:14;;;;;;;8.70;4.07;;;8.00;99.90;;;;;;5034562;28;20681;-67
2023/04/14 06:44:39;;;;;;;14.03;4.37;;;8.10;99.90;;;;;;5035572;28;20540;-66
2023/04/14 06:47:05;;;;;;;10.33;4.53;;;8.00;99.90;;;;;;5037251;28;20418;-66
2023/04/14 06:49:31;;;;;;;10.63;4.60;;;8.00;99.90;;;;;;5037032;28;20234;-66
2023/04/14 06:51:56;;;;;;;18.83;5.33;;;8.10;99.90;;;;;;5037083;28;20222;-66
2023/04/14 06:54:22;;;;;;;11.07;4.30;;;8.10;99.90;;;;;;5042169;28;20651;-65
2023/04/14 06:56:48;;;;;;;7.77;3.60;;;8.20;99.90;;;;;;5038300;28;20192;-65
2023/04/14 06:59:13;;;;;;;12.43;4.17;;;8.20;99.90;;;;;;5029168;28;20191;-65
2023/04/14 07:01:40;;;;;;;12.77;4.30;;;8.20;99.90;;;;;;5034792;28;20208;-66
2023/04/14 07:04:06;;;;;;;5.77;3.73;;;8.10;99.90;;;;;;5032691;28;20241;-66
2023/04/14 07:06:31;;;;;;;9.50;4.67;;;8.20;99.90;;;;;;5037581;28;20925;-67
2023/04/14 07:08:57;;;;;;;10.00;4.90;;;8.30;99.90;;;;;;5041090;28;21042;-66
2023/04/14 07:11:22;;;;;;;9.40;4.87;;;8.40;99.90;;;;;;5040298;28;20299;-65
2023/04/14 07:13:48;;;;;;;8.53;5.10;;;8.30;99.90;;;;;;5040998;28;20188;-65
2023/04/14 07:16:13;;;;;;;9.50;4.03;;;8.30;99.90;;;;;;5041150;28;20198;-65
2023/04/14 07:18:39;;;;;;;9.57;3.87;;;8.40;99.90;;;;;;5039338;28;20974;-65
2023/04/14 07:21:05;;;;;;;13.20;4.60;;;8.50;99.90;;;;;;5037619;28;20216;-65
2023/04/14 07:23:32;;;;;;;10.13;4.00;;;8.60;99.90;;;;;;5039476;28;20629;-66
2023/04/14 07:25:58;;;;;;;7.73;4.30;;;8.60;99.90;;;;;;5038432;28;20184;-65
2023/04/14 07:28:26;;;;;;;6.40;4.57;;;8.60;99.90;;;;;;5035053;28;20539;-65
2023/04/14 07:30:53;;;;;;;11.47;4.30;;;8.70;99.90;;;;;;5037077;28;20473;-65
2023/04/14 07:33:20;;;;;;;8.43;4.03;;;8.70;99.90;;;;;;5035191;28;20552;-65
2023/04/14 07:35:50;;;;;;;10.13;4.57;;;8.70;99.90;;;;;;5033899;28;20434;-66
2023/04/14 07:38:16;;;;;;;9.23;4.20;;;8.80;99.90;;;;;;5036230;28;20445;-65
2023/04/14 07:40:42;;;;;;;8.83;4.33;;;8.80;99.90;;;;;;5040372;28;21574;-65
2023/04/14 07:43:08;;;;;;;9.90;4.40;;;9.00;99.90;;;;;;5037934;28;20947;-65
2023/04/14 07:45:33;;;;;;;8.70;4.60;;;9.00;99.90;;;;;;5039743;28;20299;-66
2023/04/14 07:47:59;;;;;;;8.10;3.90;;;9.20;99.90;;;;;;5041070;28;20198;-65
2023/04/14 07:50:25;;;;;;;8.77;3.93;;;9.20;99.90;;;;;;5040566;28;20982;-65
2023/04/14 07:52:50;;;;;;;12.20;3.80;;;9.30;99.90;;;;;;5041880;28;20271;-65
2023/04/14 07:55:16;;;;;;;7.37;3.90;;;9.40;99.90;;;;;;5038214;28;20514;-66
2023/04/14 07:57:41;;;;;;;9.07;4.05;;;9.40;99.90;;;;;;5039781;28;20411;-66
2023/04/14 08:00:10;;;;;;;9.50;4.50;;;9.50;99.90;;;;;;5037467;28;20219;-66
2023/04/14 08:02:37;;;;;;;7.90;3.37;;;9.70;99.90;;;;;;5035975;28;20183;-66
2023/04/14 08:05:03;;;;;;;9.23;3.43;;;9.80;99.90;;;;;;5032784;28;20440;-66
2023/04/14 08:07:29;;;;;;;11.10;3.73;;;9.90;99.90;;;;;;5039973;28;20458;-66
2023/04/14 08:09:54;;;;;;;7.67;3.43;;;9.90;99.90;;;;;;5035610;28;20548;-66
2023/04/14 08:12:20;;;;;;;10.80;3.77;;;9.90;99.90;;;;;;5039866;28;21210;-66
2023/04/14 08:14:48;;;;;;;7.17;3.87;;;10.00;99.90;;;;;;5032723;28;20443;-66
2023/04/14 08:17:14;;;;;;;8.93;3.60;;;10.10;99.90;;;;;;5040539;28;20187;-67
2023/04/14 08:19:40;;;;;;;9.73;4.03;;;10.10;99.90;;;;;;5038299;28;20476;-66
2023/04/14 08:22:06;;;;;;;9.93;3.97;;;10.20;99.90;;;;;;5035260;28;20215;-67
2023/04/14 08:24:31;;;;;;;9.13;3.87;;;10.20;99.90;;;;;;5037020;28;20179;-66
2023/04/14 08:26:57;;;;;;;9.67;4.17;;;10.30;99.90;;;;;;5037657;28;20203;-66
2023/04/14 08:29:23;;;;;;;5.37;3.27;;;10.30;99.90;;;;;;5032717;28;22911;-66
2023/04/14 08:31:48;;;;;;;7.13;3.70;;;10.30;99.90;;;;;;5036527;28;20214;-66
2023/04/14 08:34:14;;;;;;;9.83;3.40;;;10.40;99.90;;;;;;5038072;28;20809;-65
2023/04/14 08:36:40;;;;;;;9.27;4.00;;;10.40;99.90;;;;;;5033074;28;20442;-65
2023/04/14 08:39:06;;;;;;;6.97;3.80;;;10.50;99.90;;;;;;5040345;28;20511;-65
2023/04/14 08:41:37;;;;;;;7.53;4.10;;;10.60;99.90;;;;;;5039570;28;20210;-65
2023/04/14 08:44:03;;;;;;;7.63;3.30;;;10.70;99.90;;;;;;5036889;28;20168;-65
2023/04/14 08:46:30;;;;;;;8.50;3.30;;;10.70;99.90;;;;;;5037451;28;20438;-65
2023/04/14 08:49:03;;;;;;;8.37;3.60;;;10.80;99.90;;;;;;5036289;28;20179;-66
2023/04/14 08:51:37;;;;;;;8.40;3.83;;;10.90;99.90;;;;;;5036931;28;20489;-66
2023/04/14 08:54:07;;;;;;;9.80;4.10;;;10.90;99.90;;;;;;5041509;28;20431;-65
2023/04/14 08:56:36;;;;;;;8.00;4.20;;;10.80;99.90;;;;;;5035162;28;20435;-66
2023/04/14 08:59:03;;;;;;;6.77;3.90;;;10.90;99.90;;;;;;5039425;28;21100;-65
2023/04/14 09:01:29;;;;;;;11.30;4.70;;;10.90;99.90;;;;;;5033363;28;21050;-66
2023/04/14 09:03:56;;;;;;;8.50;3.73;;;11.10;99.90;;;;;;5037850;28;20530;-66
2023/04/14 09:06:22;;;;;;;7.20;3.80;;;11.10;99.90;;;;;;5035691;28;20267;-65
2023/04/14 09:08:48;;;;;;;6.93;3.00;;;11.10;99.90;;;;;;5037217;28;20442;-65
2023/04/14 09:11:15;;;;;;;5.63;2.97;;;11.20;99.90;;;;;;5028352;28;20458;-66
2023/04/14 09:13:43;;;;;;;11.43;4.77;;;11.20;99.90;;;;;;5039547;28;20192;-66
2023/04/14 09:16:10;;;;;;;5.17;3.30;;;11.20;99.90;;;;;;5037132;28;20453;-66
2023/04/14 09:18:35;;;;;;;6.00;3.27;;;11.10;99.90;;;;;;5048501;28;20435;-66
2023/04/14 09:21:01;;;;;;;7.83;3.47;;;11.20;99.90;;;;;;5032027;28;20964;-65
2023/04/14 09:23:27;;;;;;;9.07;2.97;;;11.20;99.90;;;;;;5043768;28;20249;-66
2023/04/14 09:25:54;;;;;;;7.83;3.03;;;11.30;99.90;;;;;;5057320;28;20200;-66
2023/04/14 09:28:20;;;;;;;4.80;2.80;;;11.40;99.90;;;;;;5041546;28;20422;-66
2023/04/14 09:30:45;;;;;;;8.33;3.83;;;11.50;99.90;;;;;;5041251;28;20491;-66
2023/04/14 09:33:21;;;;;;;7.60;4.40;;;11.50;99.90;;;;;;5044576;28;20511;-65
2023/04/14 09:35:49;;;;;;;7.37;4.13;;;11.50;99.90;;;;;;5042989;28;20183;-66
2023/04/14 09:38:29;;;;;;;5.30;3.40;;;11.60;99.90;;;;;;5044879;28;20476;-66
2023/04/14 09:40:55;;;;;;;3.63;2.73;;;11.70;99.90;;;;;;5036733;28;20477;-66
2023/04/14 09:43:25;;;;;;;6.27;3.30;;;11.60;99.90;;;;;;5041201;28;20492;-65
2023/04/14 09:45:51;;;;;;;6.57;3.10;;;11.50;99.90;;;;;;5038044;28;20183;-66
2023/04/14 09:48:17;;;;;;;4.30;2.93;;;11.60;99.90;;;;;;5040786;28;20411;-66
2023/04/14 09:51:08;;;;;;;4.23;2.60;;;11.70;99.90;;;;;;5038558;28;20812;-66
2023/04/14 09:53:35;;;;;;;6.80;2.80;;;11.80;99.90;;;;;;5039192;28;20288;-66
2023/04/14 09:56:04;;;;;;;8.87;3.33;;;11.90;99.90;;;;;;5042719;28;20492;-66
2023/04/14 09:58:39;;;;;;;8.23;3.73;;;11.90;99.90;;;;;;5042262;28;20425;-67
2023/04/14 10:01:11;;;;;;;5.03;2.73;;;12.00;99.90;;;;;;5038327;28;20492;-67
2023/04/14 10:03:42;;;;;;;6.97;2.80;;;12.10;99.90;;;;;;5040055;28;21043;-66
2023/04/14 10:06:22;;;;;;;7.17;3.03;;;12.00;99.90;;;;;;5039757;28;20426;-66
2023/04/14 10:08:50;;;;;;;6.87;3.50;;;12.10;99.90;;;;;;5035939;28;20517;-66
2023/04/14 10:11:26;;;;;;;5.43;3.00;;;12.20;99.90;;;;;;5041574;28;20453;-66
2023/04/14 10:14:01;;;;;;;5.07;2.83;;;12.30;99.90;;;;;;5041654;28;20417;-67
2023/04/14 10:16:26;;;;;;;7.80;3.10;;;12.30;99.90;;;;;;5040444;28;20438;-66
2023/04/14 10:18:53;;;;;;;9.47;3.30;;;12.30;99.90;;;;;;5035334;28;20452;-66
2023/04/14 10:21:21;;;;;;;3.40;2.63;;;12.40;99.90;;;;;;5049371;28;20208;-66
2023/04/14 10:23:47;;;;;;;4.97;3.27;;;12.40;99.90;;;;;;5039343;28;20428;-66
2023/04/14 10:26:14;;;;;;;3.73;2.50;;;12.50;99.90;;;;;;5036589;28;20420;-66
2023/04/14 10:28:44;;;;;;;5.83;2.70;;;12.50;99.90;;;;;;5038407;28;20434;-66
2023/04/14 10:31:23;;;;;;;4.30;2.77;;;12.50;99.90;;;;;;5036170;28;20469;-66
2023/04/14 10:33:49;;;;;;;6.87;2.80;;;12.60;99.90;;;;;;5036730;28;20448;-66
2023/04/14 10:36:25;;;;;;;4.97;2.73;;;12.80;99.90;;;;;;5038713;28;20430;-67
2023/04/14 10:38:58;;;;;;;4.47;2.80;;;12.80;99.90;;;;;;5040860;28;20187;-67
2023/04/14 10:41:24;;;;;;;9.17;3.57;;;12.80;99.90;;;;;;5038555;28;20474;-66
2023/04/14 10:43:50;;;;;;;10.80;3.07;;;12.80;99.90;;;;;;5038887;28;20449;-66
2023/04/14 10:46:15;;;;;;;10.60;3.53;;;12.80;99.90;;;;;;5037755;28;20187;-66
2023/04/14 10:48:46;;;;;;;3.43;3.03;;;12.90;99.90;;;;;;5040168;28;20225;-66
2023/04/14 10:51:15;;;;;;;5.67;2.80;;;13.00;99.90;;;;;;5039637;28;20704;-66
2023/04/14 10:53:54;;;;;;;5.00;3.10;;;13.20;99.90;;;;;;5038996;28;20467;-66
2023/04/14 10:56:20;;;;;;;5.07;3.17;;;13.30;99.90;;;;;;5039828;28;20870;-67
2023/04/14 10:58:56;;;;;;;3.80;3.07;;;13.40;99.90;;;;;;5041573;28;21081;-66
2023/04/14 11:01:24;;;;;;;5.90;3.50;;;13.50;99.90;;;;;;5042465;28;21029;-67
2023/04/14 11:03:52;;;;;;;6.77;4.00;;;13.60;99.90;;;;;;5038676;28;20525;-66
2023/04/14 11:06:45;;;;;;;4.80;2.70;;;13.60;99.90;;;;;;5040245;28;21190;-66
2023/04/14 11:09:35;;;;;;;3.97;2.80;;;13.70;99.90;;;;;;5038772;28;20424;-66
2023/04/14 11:12:04;;;;;;;5.60;2.97;;;13.80;99.90;;;;;;5054830;28;20446;-67
2023/04/14 11:14:31;;;;;;;5.57;3.07;;;13.90;99.90;;;;;;5041486;28;20425;-67
2023/04/14 11:17:02;;;;;;;5.53;2.90;;;14.10;99.90;;;;;;5041828;28;20483;-67
2023/04/14 11:19:28;;;;;;;6.93;2.83;;;14.20;99.90;;;;;;5040442;28;20477;-67
2023/04/14 11:21:54;;;;;;;8.80;3.40;;;14.30;99.90;;;;;;5039800;28;20505;-67
2023/04/14 11:24:24;;;;;;;10.33;2.63;;;14.40;99.90;;;;;;5045659;28;20437;-67
2023/04/14 11:26:54;;;;;;;7.20;3.30;;;14.60;98.80;;;;;;5046008;28;20180;-65
2023/04/14 11:29:20;;;;;;;5.33;3.10;;;14.60;98.40;;;;;;5044246;28;20410;-65
2023/04/14 11:31:58;;;;;;;5.43;3.20;;;14.60;98.60;;;;;;5048801;28;20447;-65
2023/04/14 11:34:27;;;;;;;4.33;2.90;;;14.70;98.90;;;;;;5041063;28;20425;-67
2023/04/14 11:36:53;;;;;;;5.10;2.83;;;14.70;96.70;;;;;;5044452;28;20473;-67
2023/04/14 11:39:19;;;;;;;6.37;3.10;;;14.80;96.60;;;;;;5044139;28;20422;-65
2023/04/14 11:41:46;;;;;;;3.90;2.67;;;14.90;95.00;;;;;;5044154;28;20485;-65
2023/04/14 11:44:18;;;;;;;5.27;2.70;;;15.10;93.60;;;;;;5044056;28;20176;-64
2023/04/14 11:46:44;;;;;;;5.73;2.60;;;15.20;95.00;;;;;;5043413;28;20433;-69
2023/04/14 11:49:10;;;;;;;5.17;2.73;;;15.30;87.90;;;;;;5038898;28;20434;-67
2023/04/14 11:51:36;;;;;;;3.70;2.50;;;15.30;85.80;;;;;;5038004;28;20203;-65
2023/04/14 11:54:02;;;;;;;6.07;3.10;;;15.50;84.80;;;;;;5046348;28;20418;-67
2023/04/14 11:56:30;;;;;;;3.37;2.50;;;15.80;83.40;;;;;;5042686;28;20267;-68
2023/04/14 11:59:03;;;;;;;3.03;2.63;;;16.10;81.50;;;;;;5044779;28;20211;-66
2023/04/14 12:01:29;;;;;;;7.43;2.80;;;16.60;82.80;;;;;;5042522;28;20481;-65
2023/04/14 12:03:56;;;;;;;4.63;2.93;;;17.30;81.80;;;;;;5042276;28;20532;-65
2023/04/14 12:06:22;;;;;;;4.57;2.60;;;18.10;82.40;;;;;;5039257;28;20180;-65
2023/04/14 12:09:02;;;;;;;6.33;3.57;;;18.90;70.00;;;;;;5038985;28;20980;-65
2023/04/14 12:11:27;;;;;;;5.70;2.70;;;19.90;65.90;;;;;;5034967;28;20558;-65
2023/04/14 12:13:53;;;;;;;7.50;2.87;;;20.10;63.60;;;;;;5037623;28;20522;-65
2023/04/14 12:16:19;;;;;;;4.33;2.80;;;21.00;63.70;;;;;;5036012;28;20214;-66
2023/04/14 12:18:45;;;;;;;5.87;3.40;;;22.10;59.70;;;;;;5035370;28;20181;-65
2023/04/14 12:21:16;;;;;;;4.37;3.00;;;22.90;58.40;;;;;;5038875;28;20212;-65
2023/04/14 12:23:47;;;;;;;4.63;3.23;;;23.50;54.80;;;;;;5043016;28;20255;-66
2023/04/14 12:26:12;;;;;;;6.53;5.70;;;24.00;52.90;;;;;;5037048;28;20434;-66
2023/04/14 12:28:40;;;;;;;3.87;3.00;;;24.40;52.90;;;;;;5041573;28;20807;-66
2023/04/14 12:31:06;;;;;;;4.20;3.00;;;24.30;47.10;;;;;;5032141;28;20223;-67
2023/04/14 12:33:32;;;;;;;7.60;3.17;;;24.00;47.30;;;;;;5039596;28;20517;-67
2023/04/14 12:36:04;;;;;;;4.27;2.70;;;24.10;47.60;;;;;;5048252;28;20558;-67
2023/04/14 12:38:31;;;;;;;4.83;2.80;;;24.70;47.00;;;;;;5032012;28;20517;-68
2023/04/14 12:40:57;;;;;;;3.77;2.93;;;25.10;45.70;;;;;;5034736;28;20615;-69
2023/04/14 12:43:30;;;;;;;4.10;2.90;;;25.20;45.20;;;;;;5038486;28;20842;-67
2023/04/14 12:45:57;;;;;;;3.70;2.50;;;25.20;42.90;;;;;;5037830;28;20191;-66
2023/04/14 12:48:42;;;;;;;4.10;2.80;;;25.30;42.70;;;;;;5037574;28;20860;-65
2023/04/14 12:51:09;;;;;;;4.03;3.10;;;25.70;41.90;;;;;;5039038;28;20450;-66
2023/04/14 12:53:35;;;;;;;7.20;3.10;;;26.40;41.40;;;;;;5039320;28;20462;-66
2023/04/14 12:56:05;;;;;;;4.20;2.70;;;26.80;41.70;;;;;;5041604;28;20473;-66
2023/04/14 12:58:32;;;;;;;4.80;2.87;;;27.00;41.40;;;;;;5038327;28;20188;-65